Terminal Aerodrome Forecast
Issued by NWS Twin Cities, MN

Home | Current Version | Previous Version | Graphics & Text | Print | Product List | Glossary On
Versions: 1 2 3 4 5 6 7 8 9 10 11 12 13 14 15 16 17 18 19 20 21
000
FTUS43 KMPX 252259 AAB
TAFSTC
TAF AMD
KSTC 252259Z 2523/2618 30015G20KT P6SM VCSH SCT045 OVC060
     FM261000 29014G20KT P6SM SCT040
     FM261500 30020G32KT P6SM SKC=

USA.gov is the U.S. government's official web portal to all federal, state and local government web resources and services.